Annapolis, Washington
Current Conditions -  °F | °C
As of 3:15 PM on Wednesday 26 Nov 2014 (Local Time) from KPWT Reporting Station
Overcast Overcast  
Wind Chill: 54°   Ceiling: 400
Heat Index: 54°   Visibility: 2.5mi
Dew Point: 54°   Wind: 9mph
Humidity: 100%   Direction: 210°SSW
Pressure: 30.04"   Gusts: NA
Location:  47.5378°N, 122.589°W
Report Text: KPWT 262315Z AUTO 21008KT 2 1/2SM OVC004 12/12 A3004 RMK AO1 P0001
Loading
Personal Weather Stations






























Interactive Weather Map New forecast layout! Learn more

10-Day Weather Forecast

Advertisements
Track Severe Weather on mobile